sensor_id;sensor_type;location;lat;lon;timestamp;temperature;humidity
20831;DHT22;10576;53.556;9.868;2023-04-24T00:01:27;11.90;99.90
20831;DHT22;10576;53.556;9.868;2023-04-24T00:03:55;12.60;99.90
20831;DHT22;10576;53.556;9.868;2023-04-24T00:06:21;12.10;99.90
20831;DHT22;10576;53.556;9.868;2023-04-24T00:08:48;12.30;99.90
20831;DHT22;10576;53.556;9.868;2023-04-24T00:11:14;11.90;99.90
20831;DHT22;10576;53.556;9.868;2023-04-24T00:13:40;12.50;99.90
20831;DHT22;10576;53.556;9.868;2023-04-24T00:16:05;11.90;99.90
20831;DHT22;10576;53.556;9.868;2023-04-24T00:18:31;11.70;99.90
20831;DHT22;10576;53.556;9.868;2023-04-24T00:20:57;11.80;99.90
20831;DHT22;10576;53.556;9.868;2023-04-24T00:23:22;11.80;99.90
20831;DHT22;10576;53.556;9.868;2023-04-24T00:25:48;12.10;99.90
20831;DHT22;10576;53.556;9.868;2023-04-24T00:28:13;12.30;99.90
20831;DHT22;10576;53.556;9.868;2023-04-24T00:30:40;11.80;99.90
20831;DHT22;10576;53.556;9.868;2023-04-24T00:33:05;11.80;99.90
20831;DHT22;10576;53.556;9.868;2023-04-24T00:35:31;11.90;99.90
20831;DHT22;10576;53.556;9.868;2023-04-24T00:37:56;12.30;99.90
20831;DHT22;10576;53.556;9.868;2023-04-24T00:40:22;11.60;99.90
20831;DHT22;10576;53.556;9.868;2023-04-24T00:42:48;12.30;99.90
20831;DHT22;10576;53.556;9.868;2023-04-24T00:45:13;11.70;99.90
20831;DHT22;10576;53.556;9.868;2023-04-24T00:47:41;11.70;99.90
20831;DHT22;10576;53.556;9.868;2023-04-24T00:50:07;11.70;99.90
20831;DHT22;10576;53.556;9.868;2023-04-24T00:52:33;11.60;99.90
20831;DHT22;10576;53.556;9.868;2023-04-24T00:54:59;11.70;99.90
20831;DHT22;10576;53.556;9.868;2023-04-24T00:57:25;11.50;99.90
20831;DHT22;10576;53.556;9.868;2023-04-24T00:59:52;11.60;99.90
20831;DHT22;10576;53.556;9.868;2023-04-24T01:02:19;11.60;99.90
20831;DHT22;10576;53.556;9.868;2023-04-24T01:04:45;11.50;99.90
20831;DHT22;10576;53.556;9.868;2023-04-24T01:09:43;11.50;99.90
20831;DHT22;10576;53.556;9.868;2023-04-24T01:12:12;12.10;99.90
20831;DHT22;10576;53.556;9.868;2023-04-24T01:14:38;11.30;99.90
20831;DHT22;10576;53.556;9.868;2023-04-24T01:17:04;11.60;99.90
20831;DHT22;10576;53.556;9.868;2023-04-24T01:19:29;11.30;99.90
20831;DHT22;10576;53.556;9.868;2023-04-24T01:21:58;11.60;99.90
20831;DHT22;10576;53.556;9.868;2023-04-24T01:26:50;11.40;99.90
20831;DHT22;10576;53.556;9.868;2023-04-24T01:29:15;11.50;99.90
20831;DHT22;10576;53.556;9.868;2023-04-24T01:31:41;11.30;99.90
20831;DHT22;10576;53.556;9.868;2023-04-24T01:34:07;11.80;99.90
20831;DHT22;10576;53.556;9.868;2023-04-24T01:36:34;11.40;99.90
20831;DHT22;10576;53.556;9.868;2023-04-24T01:39:00;11.30;99.90
20831;DHT22;10576;53.556;9.868;2023-04-24T01:41:26;11.30;99.90
20831;DHT22;10576;53.556;9.868;2023-04-24T01:43:53;11.20;99.90
20831;DHT22;10576;53.556;9.868;2023-04-24T01:46:19;11.70;99.90
20831;DHT22;10576;53.556;9.868;2023-04-24T01:48:45;11.90;99.90
20831;DHT22;10576;53.556;9.868;2023-04-24T01:51:11;11.30;99.90
20831;DHT22;10576;53.556;9.868;2023-04-24T01:53:37;11.70;99.90
20831;DHT22;10576;53.556;9.868;2023-04-24T01:56:03;11.20;99.90
20831;DHT22;10576;53.556;9.868;2023-04-24T01:58:29;11.30;99.90
20831;DHT22;10576;53.556;9.868;2023-04-24T02:00:56;11.20;99.90
20831;DHT22;10576;53.556;9.868;2023-04-24T02:03:23;11.30;99.90
20831;DHT22;10576;53.556;9.868;2023-04-24T02:05:48;11.60;99.90
20831;DHT22;10576;53.556;9.868;2023-04-24T02:08:14;11.20;99.90
20831;DHT22;10576;53.556;9.868;2023-04-24T02:10:39;11.10;99.90
20831;DHT22;10576;53.556;9.868;2023-04-24T02:13:05;11.10;99.90
20831;DHT22;10576;53.556;9.868;2023-04-24T02:15:30;11.00;99.90
20831;DHT22;10576;53.556;9.868;2023-04-24T02:17:56;11.30;99.90
20831;DHT22;10576;53.556;9.868;2023-04-24T02:20:22;11.00;99.90
20831;DHT22;10576;53.556;9.868;2023-04-24T02:22:47;11.10;99.90
20831;DHT22;10576;53.556;9.868;2023-04-24T02:25:13;10.90;99.90
20831;DHT22;10576;53.556;9.868;2023-04-24T02:27:38;11.50;99.90
20831;DHT22;10576;53.556;9.868;2023-04-24T02:30:04;10.90;99.90
20831;DHT22;10576;53.556;9.868;2023-04-24T02:32:30;10.90;99.90
20831;DHT22;10576;53.556;9.868;2023-04-24T02:34:56;11.30;99.90
20831;DHT22;10576;53.556;9.868;2023-04-24T02:39:47;10.70;99.90
20831;DHT22;10576;53.556;9.868;2023-04-24T02:42:13;10.90;99.90
20831;DHT22;10576;53.556;9.868;2023-04-24T02:44:38;10.90;99.90
20831;DHT22;10576;53.556;9.868;2023-04-24T02:47:04;11.10;99.90
20831;DHT22;10576;53.556;9.868;2023-04-24T02:49:30;10.70;99.90
20831;DHT22;10576;53.556;9.868;2023-04-24T02:51:55;11.00;99.90
20831;DHT22;10576;53.556;9.868;2023-04-24T02:54:21;10.80;99.90
20831;DHT22;10576;53.556;9.868;2023-04-24T02:56:46;10.60;99.90
20831;DHT22;10576;53.556;9.868;2023-04-24T03:01:38;10.70;99.90
20831;DHT22;10576;53.556;9.868;2023-04-24T03:04:03;11.00;99.90
20831;DHT22;10576;53.556;9.868;2023-04-24T03:06:29;11.10;99.90
20831;DHT22;10576;53.556;9.868;2023-04-24T03:08:56;11.20;99.90
20831;DHT22;10576;53.556;9.868;2023-04-24T03:11:22;10.60;99.90
20831;DHT22;10576;53.556;9.868;2023-04-24T03:13:47;10.50;99.90
20831;DHT22;10576;53.556;9.868;2023-04-24T03:16:13;10.60;99.90
20831;DHT22;10576;53.556;9.868;2023-04-24T03:18:39;11.00;99.90
20831;DHT22;10576;53.556;9.868;2023-04-24T03:21:04;10.30;99.90
20831;DHT22;10576;53.556;9.868;2023-04-24T03:23:30;10.70;99.90
20831;DHT22;10576;53.556;9.868;2023-04-24T03:25:56;10.20;99.90
20831;DHT22;10576;53.556;9.868;2023-04-24T03:28:21;11.10;99.90
20831;DHT22;10576;53.556;9.868;2023-04-24T03:30:47;10.10;99.90
20831;DHT22;10576;53.556;9.868;2023-04-24T03:33:12;10.30;99.90
20831;DHT22;10576;53.556;9.868;2023-04-24T03:35:38;10.50;99.90
20831;DHT22;10576;53.556;9.868;2023-04-24T03:38:04;10.20;99.90
20831;DHT22;10576;53.556;9.868;2023-04-24T03:40:30;10.20;99.90
20831;DHT22;10576;53.556;9.868;2023-04-24T03:42:55;10.10;99.90
20831;DHT22;10576;53.556;9.868;2023-04-24T03:45:21;10.70;99.90
20831;DHT22;10576;53.556;9.868;2023-04-24T03:47:47;9.90;99.90
20831;DHT22;10576;53.556;9.868;2023-04-24T03:50:12;10.00;99.90
20831;DHT22;10576;53.556;9.868;2023-04-24T03:52:38;10.20;99.90
20831;DHT22;10576;53.556;9.868;2023-04-24T03:55:04;10.10;99.90
20831;DHT22;10576;53.556;9.868;2023-04-24T03:57:29;10.10;99.90
20831;DHT22;10576;53.556;9.868;2023-04-24T03:59:55;10.10;99.90
20831;DHT22;10576;53.556;9.868;2023-04-24T04:02:21;9.90;99.90
20831;DHT22;10576;53.556;9.868;2023-04-24T04:04:46;10.00;99.90
20831;DHT22;10576;53.556;9.868;2023-04-24T04:07:12;10.70;99.90
20831;DHT22;10576;53.556;9.868;2023-04-24T04:09:38;10.00;99.90
20831;DHT22;10576;53.556;9.868;2023-04-24T04:12:03;10.40;99.90
20831;DHT22;10576;53.556;9.868;2023-04-24T04:14:29;10.00;99.90
20831;DHT22;10576;53.556;9.868;2023-04-24T04:16:55;10.00;99.90
20831;DHT22;10576;53.556;9.868;2023-04-24T04:21:46;9.90;99.90
20831;DHT22;10576;53.556;9.868;2023-04-24T04:24:17;10.20;99.90
20831;DHT22;10576;53.556;9.868;2023-04-24T04:26:43;10.50;99.90
20831;DHT22;10576;53.556;9.868;2023-04-24T04:29:13;10.10;99.90
20831;DHT22;10576;53.556;9.868;2023-04-24T04:31:38;9.90;99.90
20831;DHT22;10576;53.556;9.868;2023-04-24T04:34:04;10.60;99.90
20831;DHT22;10576;53.556;9.868;2023-04-24T04:36:29;10.30;99.90
20831;DHT22;10576;53.556;9.868;2023-04-24T04:38:55;10.30;99.90
20831;DHT22;10576;53.556;9.868;2023-04-24T04:43:48;9.90;99.90
20831;DHT22;10576;53.556;9.868;2023-04-24T04:46:14;9.90;99.90
20831;DHT22;10576;53.556;9.868;2023-04-24T04:48:39;9.80;99.90
20831;DHT22;10576;53.556;9.868;2023-04-24T04:51:05;9.90;99.90
20831;DHT22;10576;53.556;9.868;2023-04-24T04:53:31;10.20;99.90
20831;DHT22;10576;53.556;9.868;2023-04-24T04:55:57;10.00;99.90
20831;DHT22;10576;53.556;9.868;2023-04-24T04:58:23;10.10;99.90
20831;DHT22;10576;53.556;9.868;2023-04-24T05:03:14;10.10;99.90
20831;DHT22;10576;53.556;9.868;2023-04-24T05:05:40;9.90;99.90
20831;DHT22;10576;53.556;9.868;2023-04-24T05:08:07;9.90;99.90
20831;DHT22;10576;53.556;9.868;2023-04-24T05:10:34;10.00;99.90
20831;DHT22;10576;53.556;9.868;2023-04-24T05:13:00;10.10;99.90
20831;DHT22;10576;53.556;9.868;2023-04-24T05:15:26;10.30;99.90
20831;DHT22;10576;53.556;9.868;2023-04-24T05:17:52;9.80;99.90
20831;DHT22;10576;53.556;9.868;2023-04-24T05:20:17;10.20;99.90
20831;DHT22;10576;53.556;9.868;2023-04-24T05:22:43;10.30;99.90
20831;DHT22;10576;53.556;9.868;2023-04-24T05:25:09;10.50;99.90
20831;DHT22;10576;53.556;9.868;2023-04-24T05:27:34;10.20;99.90
20831;DHT22;10576;53.556;9.868;2023-04-24T05:30:00;10.30;99.90
20831;DHT22;10576;53.556;9.868;2023-04-24T05:32:26;10.40;99.90
20831;DHT22;10576;53.556;9.868;2023-04-24T05:34:52;10.30;99.90
20831;DHT22;10576;53.556;9.868;2023-04-24T05:37:18;10.30;99.90
20831;DHT22;10576;53.556;9.868;2023-04-24T05:39:43;10.50;99.90
20831;DHT22;10576;53.556;9.868;2023-04-24T05:42:09;10.50;99.90
20831;DHT22;10576;53.556;9.868;2023-04-24T05:44:35;10.60;99.90
20831;DHT22;10576;53.556;9.868;2023-04-24T05:47:00;10.80;99.90
20831;DHT22;10576;53.556;9.868;2023-04-24T05:49:27;10.90;99.90
20831;DHT22;10576;53.556;9.868;2023-04-24T05:51:52;11.10;99.90
20831;DHT22;10576;53.556;9.868;2023-04-24T05:54:18;11.50;99.90
20831;DHT22;10576;53.556;9.868;2023-04-24T05:56:44;11.70;99.90
20831;DHT22;10576;53.556;9.868;2023-04-24T05:59:10;11.90;99.90
20831;DHT22;10576;53.556;9.868;2023-04-24T06:01:35;12.10;99.90
20831;DHT22;10576;53.556;9.868;2023-04-24T06:04:03;12.20;99.90
20831;DHT22;10576;53.556;9.868;2023-04-24T06:06:29;12.10;99.90
20831;DHT22;10576;53.556;9.868;2023-04-24T06:08:55;12.30;99.90
20831;DHT22;10576;53.556;9.868;2023-04-24T06:11:22;12.10;99.90
20831;DHT22;10576;53.556;9.868;2023-04-24T06:13:48;12.30;99.90
20831;DHT22;10576;53.556;9.868;2023-04-24T06:16:14;13.80;99.90
20831;DHT22;10576;53.556;9.868;2023-04-24T06:18:39;12.30;99.90
20831;DHT22;10576;53.556;9.868;2023-04-24T06:21:05;12.30;99.90
20831;DHT22;10576;53.556;9.868;2023-04-24T06:23:31;12.40;99.90
20831;DHT22;10576;53.556;9.868;2023-04-24T06:25:58;12.30;99.90
20831;DHT22;10576;53.556;9.868;2023-04-24T06:28:24;12.30;99.90
20831;DHT22;10576;53.556;9.868;2023-04-24T06:30:50;12.30;99.90
20831;DHT22;10576;53.556;9.868;2023-04-24T06:33:16;12.50;99.90
20831;DHT22;10576;53.556;9.868;2023-04-24T06:35:42;12.60;99.90
20831;DHT22;10576;53.556;9.868;2023-04-24T06:38:08;12.60;99.90
20831;DHT22;10576;53.556;9.868;2023-04-24T06:40:33;12.70;99.90
20831;DHT22;10576;53.556;9.868;2023-04-24T06:42:59;12.90;99.90
20831;DHT22;10576;53.556;9.868;2023-04-24T06:45:25;13.10;99.90
20831;DHT22;10576;53.556;9.868;2023-04-24T06:47:51;13.30;99.90
20831;DHT22;10576;53.556;9.868;2023-04-24T06:50:17;13.40;99.90
20831;DHT22;10576;53.556;9.868;2023-04-24T06:52:43;13.40;99.90
20831;DHT22;10576;53.556;9.868;2023-04-24T06:55:09;13.40;99.90
20831;DHT22;10576;53.556;9.868;2023-04-24T06:57:36;13.60;99.90
20831;DHT22;10576;53.556;9.868;2023-04-24T07:00:03;14.00;99.90
20831;DHT22;10576;53.556;9.868;2023-04-24T07:02:30;13.70;99.90
20831;DHT22;10576;53.556;9.868;2023-04-24T07:04:56;13.70;99.90
20831;DHT22;10576;53.556;9.868;2023-04-24T07:07:22;13.60;99.90
20831;DHT22;10576;53.556;9.868;2023-04-24T07:09:49;13.60;99.90
20831;DHT22;10576;53.556;9.868;2023-04-24T07:12:16;13.70;99.90
20831;DHT22;10576;53.556;9.868;2023-04-24T07:14:42;13.60;99.90
20831;DHT22;10576;53.556;9.868;2023-04-24T07:17:08;13.60;99.90
20831;DHT22;10576;53.556;9.868;2023-04-24T07:19:34;13.60;99.90
20831;DHT22;10576;53.556;9.868;2023-04-24T07:22:03;13.40;99.90
20831;DHT22;10576;53.556;9.868;2023-04-24T07:24:29;13.40;99.90
20831;DHT22;10576;53.556;9.868;2023-04-24T07:26:55;13.40;99.90
20831;DHT22;10576;53.556;9.868;2023-04-24T07:29:20;13.20;99.90
20831;DHT22;10576;53.556;9.868;2023-04-24T07:31:46;13.30;99.90
20831;DHT22;10576;53.556;9.868;2023-04-24T07:34:12;13.40;99.90
20831;DHT22;10576;53.556;9.868;2023-04-24T07:36:38;13.50;99.90
20831;DHT22;10576;53.556;9.868;2023-04-24T07:39:04;13.70;99.90
20831;DHT22;10576;53.556;9.868;2023-04-24T07:41:31;13.60;99.90
20831;DHT22;10576;53.556;9.868;2023-04-24T07:43:56;14.00;99.90
20831;DHT22;10576;53.556;9.868;2023-04-24T07:46:22;14.10;99.90
20831;DHT22;10576;53.556;9.868;2023-04-24T07:48:49;13.90;99.90
20831;DHT22;10576;53.556;9.868;2023-04-24T07:51:15;14.10;99.90
20831;DHT22;10576;53.556;9.868;2023-04-24T07:53:41;14.20;99.90
20831;DHT22;10576;53.556;9.868;2023-04-24T07:56:07;14.10;99.90
20831;DHT22;10576;53.556;9.868;2023-04-24T07:58:33;14.00;99.90
20831;DHT22;10576;53.556;9.868;2023-04-24T08:00:58;13.90;99.90
20831;DHT22;10576;53.556;9.868;2023-04-24T08:03:24;14.00;99.90
20831;DHT22;10576;53.556;9.868;2023-04-24T08:05:50;14.20;99.90
20831;DHT22;10576;53.556;9.868;2023-04-24T08:08:16;14.10;99.90
20831;DHT22;10576;53.556;9.868;2023-04-24T08:10:42;13.80;99.90
20831;DHT22;10576;53.556;9.868;2023-04-24T08:13:08;13.70;99.90
20831;DHT22;10576;53.556;9.868;2023-04-24T08:15:33;13.60;99.90
20831;DHT22;10576;53.556;9.868;2023-04-24T08:17:59;13.60;99.90
20831;DHT22;10576;53.556;9.868;2023-04-24T08:20:25;13.50;99.90
20831;DHT22;10576;53.556;9.868;2023-04-24T08:22:50;13.60;99.90
20831;DHT22;10576;53.556;9.868;2023-04-24T08:25:16;13.40;99.90
20831;DHT22;10576;53.556;9.868;2023-04-24T08:27:43;13.30;99.90
20831;DHT22;10576;53.556;9.868;2023-04-24T08:30:09;13.40;99.90
20831;DHT22;10576;53.556;9.868;2023-04-24T08:32:35;13.30;99.90
20831;DHT22;10576;53.556;9.868;2023-04-24T08:35:01;13.40;99.90
20831;DHT22;10576;53.556;9.868;2023-04-24T08:37:27;13.50;99.90
20831;DHT22;10576;53.556;9.868;2023-04-24T08:39:53;13.40;99.90
20831;DHT22;10576;53.556;9.868;2023-04-24T08:42:19;13.30;99.90
20831;DHT22;10576;53.556;9.868;2023-04-24T08:44:45;13.20;99.90
20831;DHT22;10576;53.556;9.868;2023-04-24T08:47:12;13.20;99.90
20831;DHT22;10576;53.556;9.868;2023-04-24T08:49:38;13.00;99.90
20831;DHT22;10576;53.556;9.868;2023-04-24T08:52:05;13.10;99.90
20831;DHT22;10576;53.556;9.868;2023-04-24T08:54:31;13.30;99.90
20831;DHT22;10576;53.556;9.868;2023-04-24T08:56:59;13.30;99.90
20831;DHT22;10576;53.556;9.868;2023-04-24T08:59:27;13.90;99.90
20831;DHT22;10576;53.556;9.868;2023-04-24T09:01:53;13.60;99.90
20831;DHT22;10576;53.556;9.868;2023-04-24T09:04:20;13.80;99.90
20831;DHT22;10576;53.556;9.868;2023-04-24T09:06:48;13.80;99.90
20831;DHT22;10576;53.556;9.868;2023-04-24T09:09:16;13.80;99.90
20831;DHT22;10576;53.556;9.868;2023-04-24T09:11:43;13.90;99.90
20831;DHT22;10576;53.556;9.868;2023-04-24T09:14:09;13.80;99.90
20831;DHT22;10576;53.556;9.868;2023-04-24T09:16:36;13.80;99.90
20831;DHT22;10576;53.556;9.868;2023-04-24T09:19:02;13.70;99.90
20831;DHT22;10576;53.556;9.868;2023-04-24T09:21:32;13.60;99.90
20831;DHT22;10576;53.556;9.868;2023-04-24T09:24:00;13.50;99.90
20831;DHT22;10576;53.556;9.868;2023-04-24T09:26:31;13.50;99.90
20831;DHT22;10576;53.556;9.868;2023-04-24T09:28:58;13.60;99.90
20831;DHT22;10576;53.556;9.868;2023-04-24T09:31:27;13.70;99.90
20831;DHT22;10576;53.556;9.868;2023-04-24T09:34:03;13.70;99.90
20831;DHT22;10576;53.556;9.868;2023-04-24T09:36:42;13.70;99.90
20831;DHT22;10576;53.556;9.868;2023-04-24T09:39:13;13.70;99.90
20831;DHT22;10576;53.556;9.868;2023-04-24T09:41:53;13.40;99.90
20831;DHT22;10576;53.556;9.868;2023-04-24T09:44:24;13.30;99.90
20831;DHT22;10576;53.556;9.868;2023-04-24T09:46:55;13.30;99.90
20831;DHT22;10576;53.556;9.868;2023-04-24T09:49:25;13.10;99.90
20831;DHT22;10576;53.556;9.868;2023-04-24T09:51:51;13.10;99.90
20831;DHT22;10576;53.556;9.868;2023-04-24T09:54:21;12.90;99.90
20831;DHT22;10576;53.556;9.868;2023-04-24T09:56:48;13.00;99.90
20831;DHT22;10576;53.556;9.868;2023-04-24T09:59:16;13.00;99.90
20831;DHT22;10576;53.556;9.868;2023-04-24T10:01:42;12.90;99.90
20831;DHT22;10576;53.556;9.868;2023-04-24T10:04:23;12.80;99.90
20831;DHT22;10576;53.556;9.868;2023-04-24T10:06:51;12.80;99.90
20831;DHT22;10576;53.556;9.868;2023-04-24T10:09:19;12.90;99.90
20831;DHT22;10576;53.556;9.868;2023-04-24T10:11:46;10.50;99.90
20831;DHT22;10576;53.556;9.868;2023-04-24T10:14:15;12.90;99.90
20831;DHT22;10576;53.556;9.868;2023-04-24T10:16:42;13.50;99.90
20831;DHT22;10576;53.556;9.868;2023-04-24T10:19:07;13.00;99.90
20831;DHT22;10576;53.556;9.868;2023-04-24T10:21:34;13.00;99.90
20831;DHT22;10576;53.556;9.868;2023-04-24T10:24:00;13.00;99.90
20831;DHT22;10576;53.556;9.868;2023-04-24T10:26:29;13.00;99.90
20831;DHT22;10576;53.556;9.868;2023-04-24T10:28:57;13.00;99.90
20831;DHT22;10576;53.556;9.868;2023-04-24T10:31:23;13.00;99.90
20831;DHT22;10576;53.556;9.868;2023-04-24T10:33:50;13.00;99.90
20831;DHT22;10576;53.556;9.868;2023-04-24T10:36:18;13.00;99.90
20831;DHT22;10576;53.556;9.868;2023-04-24T10:38:45;13.00;99.90
20831;DHT22;10576;53.556;9.868;2023-04-24T10:41:12;13.00;99.90
20831;DHT22;10576;53.556;9.868;2023-04-24T10:43:45;13.00;99.90
20831;DHT22;10576;53.556;9.868;2023-04-24T10:46:19;13.30;99.90
20831;DHT22;10576;53.556;9.868;2023-04-24T10:48:56;13.50;99.90
20831;DHT22;10576;53.556;9.868;2023-04-24T10:51:23;13.80;99.90
20831;DHT22;10576;53.556;9.868;2023-04-24T10:53:51;11.00;99.90
20831;DHT22;10576;53.556;9.868;2023-04-24T10:56:17;13.90;99.90
20831;DHT22;10576;53.556;9.868;2023-04-24T10:58:50;13.80;99.90
20831;DHT22;10576;53.556;9.868;2023-04-24T11:01:31;13.80;99.90
20831;DHT22;10576;53.556;9.868;2023-04-24T11:03:59;13.80;99.90
20831;DHT22;10576;53.556;9.868;2023-04-24T11:06:35;13.80;99.90
20831;DHT22;10576;53.556;9.868;2023-04-24T11:09:09;13.90;99.90
20831;DHT22;10576;53.556;9.868;2023-04-24T11:11:38;13.80;99.90
20831;DHT22;10576;53.556;9.868;2023-04-24T11:14:09;13.60;99.90
20831;DHT22;10576;53.556;9.868;2023-04-24T11:16:51;13.70;99.90
20831;DHT22;10576;53.556;9.868;2023-04-24T11:21:44;13.70;99.90
20831;DHT22;10576;53.556;9.868;2023-04-24T11:24:28;13.80;99.90
20831;DHT22;10576;53.556;9.868;2023-04-24T11:26:56;13.80;99.90
20831;DHT22;10576;53.556;9.868;2023-04-24T11:29:23;13.80;99.90
20831;DHT22;10576;53.556;9.868;2023-04-24T11:32:57;13.70;99.90
20831;DHT22;10576;53.556;9.868;2023-04-24T11:35:19;13.70;99.90
20831;DHT22;10576;53.556;9.868;2023-04-24T11:37:51;13.60;99.90
20831;DHT22;10576;53.556;9.868;2023-04-24T11:40:18;13.50;99.90
20831;DHT22;10576;53.556;9.868;2023-04-24T11:42:49;13.70;99.90
20831;DHT22;10576;53.556;9.868;2023-04-24T11:45:23;13.50;99.90
20831;DHT22;10576;53.556;9.868;2023-04-24T11:47:50;13.50;99.90
20831;DHT22;10576;53.556;9.868;2023-04-24T11:50:17;13.50;99.90
20831;DHT22;10576;53.556;9.868;2023-04-24T11:52:45;13.40;99.90
20831;DHT22;10576;53.556;9.868;2023-04-24T11:57:41;12.40;99.90
20831;DHT22;10576;53.556;9.868;2023-04-24T12:02:40;13.40;99.90
20831;DHT22;10576;53.556;9.868;2023-04-24T12:05:06;13.40;99.90
20831;DHT22;10576;53.556;9.868;2023-04-24T12:07:40;13.30;99.90
20831;DHT22;10576;53.556;9.868;2023-04-24T12:10:08;13.40;99.90
20831;DHT22;10576;53.556;9.868;2023-04-24T12:12:34;13.40;99.90
20831;DHT22;10576;53.556;9.868;2023-04-24T12:15:01;13.20;99.90
20831;DHT22;10576;53.556;9.868;2023-04-24T12:17:29;13.10;99.90
20831;DHT22;10576;53.556;9.868;2023-04-24T12:20:01;13.00;99.90
20831;DHT22;10576;53.556;9.868;2023-04-24T12:22:27;12.90;99.90
20831;DHT22;10576;53.556;9.868;2023-04-24T12:25:01;12.90;99.90
20831;DHT22;10576;53.556;9.868;2023-04-24T12:27:33;12.90;99.90
20831;DHT22;10576;53.556;9.868;2023-04-24T12:29:59;12.80;99.90
20831;DHT22;10576;53.556;9.868;2023-04-24T12:32:26;12.80;99.90
20831;DHT22;10576;53.556;9.868;2023-04-24T12:34:55;12.60;99.90
20831;DHT22;10576;53.556;9.868;2023-04-24T12:37:23;12.40;99.90
20831;DHT22;10576;53.556;9.868;2023-04-24T12:40:11;12.30;99.90
20831;DHT22;10576;53.556;9.868;2023-04-24T12:42:43;12.50;99.90
20831;DHT22;10576;53.556;9.868;2023-04-24T12:45:09;12.20;99.90
20831;DHT22;10576;53.556;9.868;2023-04-24T12:47:35;12.30;99.90
20831;DHT22;10576;53.556;9.868;2023-04-24T12:50:02;12.20;99.90
20831;DHT22;10576;53.556;9.868;2023-04-24T12:52:29;12.30;99.90
20831;DHT22;10576;53.556;9.868;2023-04-24T12:54:57;12.10;99.90
20831;DHT22;10576;53.556;9.868;2023-04-24T12:57:23;12.20;99.90
20831;DHT22;10576;53.556;9.868;2023-04-24T12:59:49;12.20;99.90
20831;DHT22;10576;53.556;9.868;2023-04-24T13:02:16;12.20;99.90
20831;DHT22;10576;53.556;9.868;2023-04-24T13:04:46;12.20;99.90
20831;DHT22;10576;53.556;9.868;2023-04-24T13:07:13;12.10;99.90
20831;DHT22;10576;53.556;9.868;2023-04-24T13:09:40;12.20;99.90
20831;DHT22;10576;53.556;9.868;2023-04-24T13:12:06;12.30;99.90
20831;DHT22;10576;53.556;9.868;2023-04-24T13:14:32;12.20;99.90
20831;DHT22;10576;53.556;9.868;2023-04-24T13:16:58;12.40;99.90
20831;DHT22;10576;53.556;9.868;2023-04-24T13:19:27;12.30;99.90
20831;DHT22;10576;53.556;9.868;2023-04-24T13:21:56;12.40;99.90
20831;DHT22;10576;53.556;9.868;2023-04-24T13:24:25;12.40;99.90
20831;DHT22;10576;53.556;9.868;2023-04-24T13:26:52;12.30;99.90
20831;DHT22;10576;53.556;9.868;2023-04-24T13:29:18;12.10;99.90
20831;DHT22;10576;53.556;9.868;2023-04-24T13:31:44;12.10;99.90
20831;DHT22;10576;53.556;9.868;2023-04-24T13:34:10;12.10;99.90
20831;DHT22;10576;53.556;9.868;2023-04-24T13:36:36;12.20;99.90
20831;DHT22;10576;53.556;9.868;2023-04-24T13:39:02;12.20;99.90
20831;DHT22;10576;53.556;9.868;2023-04-24T13:41:30;12.10;99.90
20831;DHT22;10576;53.556;9.868;2023-04-24T13:43:55;12.10;99.90
20831;DHT22;10576;53.556;9.868;2023-04-24T13:46:21;12.00;99.90
20831;DHT22;10576;53.556;9.868;2023-04-24T13:48:47;12.20;99.90
20831;DHT22;10576;53.556;9.868;2023-04-24T13:51:13;12.40;99.90
20831;DHT22;10576;53.556;9.868;2023-04-24T13:53:38;12.40;99.90
20831;DHT22;10576;53.556;9.868;2023-04-24T13:56:05;12.40;99.90
20831;DHT22;10576;53.556;9.868;2023-04-24T13:58:34;12.60;99.90
20831;DHT22;10576;53.556;9.868;2023-04-24T14:01:02;12.70;99.90
20831;DHT22;10576;53.556;9.868;2023-04-24T14:03:28;12.70;99.90
20831;DHT22;10576;53.556;9.868;2023-04-24T14:05:54;12.70;99.90
20831;DHT22;10576;53.556;9.868;2023-04-24T14:08:20;12.60;99.90
20831;DHT22;10576;53.556;9.868;2023-04-24T14:10:46;12.70;99.90
20831;DHT22;10576;53.556;9.868;2023-04-24T14:13:12;12.60;99.90
20831;DHT22;10576;53.556;9.868;2023-04-24T14:15:37;12.30;99.90
20831;DHT22;10576;53.556;9.868;2023-04-24T14:18:03;12.40;99.90
20831;DHT22;10576;53.556;9.868;2023-04-24T14:20:29;12.40;99.90
20831;DHT22;10576;53.556;9.868;2023-04-24T14:22:54;12.10;99.90
20831;DHT22;10576;53.556;9.868;2023-04-24T14:25:20;12.00;99.90
20831;DHT22;10576;53.556;9.868;2023-04-24T14:27:47;11.90;99.90
20831;DHT22;10576;53.556;9.868;2023-04-24T14:30:13;11.60;99.90
20831;DHT22;10576;53.556;9.868;2023-04-24T14:32:40;11.50;99.90
20831;DHT22;10576;53.556;9.868;2023-04-24T14:35:06;11.30;99.90
20831;DHT22;10576;53.556;9.868;2023-04-24T14:37:32;11.40;99.90
20831;DHT22;10576;53.556;9.868;2023-04-24T14:39:58;11.30;99.90
20831;DHT22;10576;53.556;9.868;2023-04-24T14:42:24;9.60;99.90
20831;DHT22;10576;53.556;9.868;2023-04-24T14:44:50;11.20;99.90
20831;DHT22;10576;53.556;9.868;2023-04-24T14:47:16;11.30;99.90
20831;DHT22;10576;53.556;9.868;2023-04-24T14:49:43;11.20;99.90
20831;DHT22;10576;53.556;9.868;2023-04-24T14:52:09;11.20;99.90
20831;DHT22;10576;53.556;9.868;2023-04-24T14:54:35;11.00;99.90
20831;DHT22;10576;53.556;9.868;2023-04-24T14:57:01;11.00;99.90
20831;DHT22;10576;53.556;9.868;2023-04-24T14:59:27;10.70;99.90
20831;DHT22;10576;53.556;9.868;2023-04-24T15:01:53;10.80;99.90
20831;DHT22;10576;53.556;9.868;2023-04-24T15:04:26;10.70;99.90
20831;DHT22;10576;53.556;9.868;2023-04-24T15:06:53;10.60;99.90
20831;DHT22;10576;53.556;9.868;2023-04-24T15:09:20;10.90;99.90
20831;DHT22;10576;53.556;9.868;2023-04-24T15:11:48;10.60;99.90
20831;DHT22;10576;53.556;9.868;2023-04-24T15:14:14;10.60;99.90
20831;DHT22;10576;53.556;9.868;2023-04-24T15:16:40;10.40;99.90
20831;DHT22;10576;53.556;9.868;2023-04-24T15:19:06;10.40;99.90
20831;DHT22;10576;53.556;9.868;2023-04-24T15:21:31;10.30;99.90
20831;DHT22;10576;53.556;9.868;2023-04-24T15:23:57;10.60;99.90
20831;DHT22;10576;53.556;9.868;2023-04-24T15:26:23;10.20;99.90
20831;DHT22;10576;53.556;9.868;2023-04-24T15:28:49;10.20;99.90
20831;DHT22;10576;53.556;9.868;2023-04-24T15:31:15;10.20;99.90
20831;DHT22;10576;53.556;9.868;2023-04-24T15:33:40;10.20;99.90
20831;DHT22;10576;53.556;9.868;2023-04-24T15:36:06;10.10;99.90
20831;DHT22;10576;53.556;9.868;2023-04-24T15:38:32;10.50;99.90
20831;DHT22;10576;53.556;9.868;2023-04-24T15:40:58;10.00;99.90
20831;DHT22;10576;53.556;9.868;2023-04-24T15:43:23;10.00;99.90
20831;DHT22;10576;53.556;9.868;2023-04-24T15:45:49;9.80;99.90
20831;DHT22;10576;53.556;9.868;2023-04-24T15:48:15;9.90;99.90
20831;DHT22;10576;53.556;9.868;2023-04-24T15:50:42;9.60;99.90
20831;DHT22;10576;53.556;9.868;2023-04-24T15:53:07;9.30;99.90
20831;DHT22;10576;53.556;9.868;2023-04-24T15:55:33;9.20;99.90